Aireys Inlet, Australia
Current Conditions -  °F | °C
As of 7:00 AM on Tuesday 25 Nov 2014 (Local Time) from YMAV Reporting Station
Scattered Clouds Scattered Clouds  
Wind Chill: 54°   Ceiling: Unl
Heat Index: 54°   Visibility: 6mi
Dew Point: 46°   Wind: 15mph
Humidity: 77%   Direction: 280°W
Pressure: 30"   Gusts: NA
Location:  38.46°S, 144.11°E
Report Text: YMAV 242000Z AUTO 28013KT 9999 // SCT028 SCT049 12/08 Q1016
Loading
Personal Weather Stations






























Interactive Weather Map New forecast layout! Learn more

10-Day Weather Forecast

Advertisements
Track Severe Weather on mobile